sensor_id;sensor_type;location;lat;lon;timestamp;P1;durP1;ratioP1;P2;durP2;ratioP2
49458;SDS011;35354;51.296;16.924;2023-04-05T00:01:19;38.25;;;15.93;;
49458;SDS011;35354;51.296;16.924;2023-04-05T00:03:45;28.98;;;15.30;;
49458;SDS011;35354;51.296;16.924;2023-04-05T00:06:11;32.13;;;14.75;;
49458;SDS011;35354;51.296;16.924;2023-04-05T00:08:37;33.10;;;13.20;;
49458;SDS011;35354;51.296;16.924;2023-04-05T00:11:02;30.77;;;13.63;;
49458;SDS011;35354;51.296;16.924;2023-04-05T00:13:27;29.92;;;13.93;;
49458;SDS011;35354;51.296;16.924;2023-04-05T00:15:53;25.60;;;12.75;;
49458;SDS011;35354;51.296;16.924;2023-04-05T00:18:21;24.35;;;12.27;;
49458;SDS011;35354;51.296;16.924;2023-04-05T00:20:48;30.40;;;12.82;;
49458;SDS011;35354;51.296;16.924;2023-04-05T00:23:14;22.67;;;12.75;;
49458;SDS011;35354;51.296;16.924;2023-04-05T00:25:41;23.98;;;11.07;;
49458;SDS011;35354;51.296;16.924;2023-04-05T00:28:07;21.90;;;11.38;;
49458;SDS011;35354;51.296;16.924;2023-04-05T00:30:33;24.23;;;12.57;;
49458;SDS011;35354;51.296;16.924;2023-04-05T00:32:58;24.13;;;11.60;;
49458;SDS011;35354;51.296;16.924;2023-04-05T00:35:26;24.80;;;10.45;;
49458;SDS011;35354;51.296;16.924;2023-04-05T00:37:55;21.90;;;11.52;;
49458;SDS011;35354;51.296;16.924;2023-04-05T00:40:21;22.25;;;11.77;;
49458;SDS011;35354;51.296;16.924;2023-04-05T00:42:46;24.38;;;12.88;;
49458;SDS011;35354;51.296;16.924;2023-04-05T00:45:12;23.90;;;11.60;;
49458;SDS011;35354;51.296;16.924;2023-04-05T00:47:38;24.67;;;11.63;;
49458;SDS011;35354;51.296;16.924;2023-04-05T00:50:05;24.88;;;13.20;;
49458;SDS011;35354;51.296;16.924;2023-04-05T00:52:32;21.67;;;11.20;;
49458;SDS011;35354;51.296;16.924;2023-04-05T00:54:59;21.45;;;11.07;;
49458;SDS011;35354;51.296;16.924;2023-04-05T00:57:25;20.92;;;10.45;;
49458;SDS011;35354;51.296;16.924;2023-04-05T00:59:50;23.85;;;11.60;;
49458;SDS011;35354;51.296;16.924;2023-04-05T01:04:43;21.33;;;10.00;;
49458;SDS011;35354;51.296;16.924;2023-04-05T01:07:24;23.17;;;11.43;;
49458;SDS011;35354;51.296;16.924;2023-04-05T01:09:56;24.20;;;12.45;;
49458;SDS011;35354;51.296;16.924;2023-04-05T01:12:27;22.58;;;11.00;;
49458;SDS011;35354;51.296;16.924;2023-04-05T01:14:57;20.30;;;11.15;;
49458;SDS011;35354;51.296;16.924;2023-04-05T01:17:23;23.48;;;12.18;;
49458;SDS011;35354;51.296;16.924;2023-04-05T01:19:56;21.08;;;10.88;;
49458;SDS011;35354;51.296;16.924;2023-04-05T01:30:36;19.70;;;10.80;;
49458;SDS011;35354;51.296;16.924;2023-04-05T01:33:13;20.95;;;11.77;;
49458;SDS011;35354;51.296;16.924;2023-04-05T01:38:23;21.23;;;11.13;;
49458;SDS011;35354;51.296;16.924;2023-04-05T01:40:49;21.63;;;11.43;;
49458;SDS011;35354;51.296;16.924;2023-04-05T01:43:16;23.50;;;11.75;;
49458;SDS011;35354;51.296;16.924;2023-04-05T01:45:42;21.42;;;11.20;;
49458;SDS011;35354;51.296;16.924;2023-04-05T01:48:09;19.85;;;10.75;;
49458;SDS011;35354;51.296;16.924;2023-04-05T01:50:35;24.88;;;11.75;;
49458;SDS011;35354;51.296;16.924;2023-04-05T01:53:00;19.95;;;11.30;;
49458;SDS011;35354;51.296;16.924;2023-04-05T01:55:26;22.38;;;10.30;;
49458;SDS011;35354;51.296;16.924;2023-04-05T01:57:52;19.00;;;11.13;;
49458;SDS011;35354;51.296;16.924;2023-04-05T02:00:19;20.73;;;11.07;;
49458;SDS011;35354;51.296;16.924;2023-04-05T02:02:45;25.98;;;12.73;;
49458;SDS011;35354;51.296;16.924;2023-04-05T02:05:10;26.45;;;12.02;;
49458;SDS011;35354;51.296;16.924;2023-04-05T02:07:36;25.38;;;11.50;;
49458;SDS011;35354;51.296;16.924;2023-04-05T02:10:01;24.08;;;11.55;;
49458;SDS011;35354;51.296;16.924;2023-04-05T02:12:26;22.38;;;11.48;;
49458;SDS011;35354;51.296;16.924;2023-04-05T02:14:52;23.45;;;12.82;;
49458;SDS011;35354;51.296;16.924;2023-04-05T02:17:17;23.00;;;13.38;;
49458;SDS011;35354;51.296;16.924;2023-04-05T02:19:42;32.15;;;15.20;;
49458;SDS011;35354;51.296;16.924;2023-04-05T02:22:10;28.23;;;14.73;;
49458;SDS011;35354;51.296;16.924;2023-04-05T02:24:35;25.98;;;12.02;;
49458;SDS011;35354;51.296;16.924;2023-04-05T02:27:00;27.45;;;13.23;;
49458;SDS011;35354;51.296;16.924;2023-04-05T02:29:26;19.75;;;11.85;;
49458;SDS011;35354;51.296;16.924;2023-04-05T02:31:52;25.05;;;13.00;;
49458;SDS011;35354;51.296;16.924;2023-04-05T02:34:17;23.15;;;12.13;;
49458;SDS011;35354;51.296;16.924;2023-04-05T02:36:42;21.88;;;13.02;;
49458;SDS011;35354;51.296;16.924;2023-04-05T02:39:08;27.38;;;13.05;;
49458;SDS011;35354;51.296;16.924;2023-04-05T02:41:34;34.38;;;15.70;;
49458;SDS011;35354;51.296;16.924;2023-04-05T02:44:00;30.55;;;16.60;;
49458;SDS011;35354;51.296;16.924;2023-04-05T02:46:25;29.00;;;15.95;;
49458;SDS011;35354;51.296;16.924;2023-04-05T02:48:51;28.98;;;16.70;;
49458;SDS011;35354;51.296;16.924;2023-04-05T02:51:16;27.45;;;16.73;;
49458;SDS011;35354;51.296;16.924;2023-04-05T02:53:41;33.35;;;17.08;;
49458;SDS011;35354;51.296;16.924;2023-04-05T02:56:08;33.05;;;17.35;;
49458;SDS011;35354;51.296;16.924;2023-04-05T02:58:35;28.02;;;15.32;;
49458;SDS011;35354;51.296;16.924;2023-04-05T03:01:01;29.98;;;16.00;;
49458;SDS011;35354;51.296;16.924;2023-04-05T03:03:31;31.83;;;17.35;;
49458;SDS011;35354;51.296;16.924;2023-04-05T03:05:59;34.03;;;15.88;;
49458;SDS011;35354;51.296;16.924;2023-04-05T03:08:31;28.33;;;16.38;;
49458;SDS011;35354;51.296;16.924;2023-04-05T03:10:56;30.88;;;16.48;;
49458;SDS011;35354;51.296;16.924;2023-04-05T03:13:21;30.30;;;15.93;;
49458;SDS011;35354;51.296;16.924;2023-04-05T03:15:47;37.30;;;17.83;;
49458;SDS011;35354;51.296;16.924;2023-04-05T03:18:12;30.85;;;17.17;;
49458;SDS011;35354;51.296;16.924;2023-04-05T03:20:37;28.88;;;15.93;;
49458;SDS011;35354;51.296;16.924;2023-04-05T03:23:06;31.75;;;17.33;;
49458;SDS011;35354;51.296;16.924;2023-04-05T03:25:35;28.42;;;17.52;;
49458;SDS011;35354;51.296;16.924;2023-04-05T03:28:04;31.73;;;17.58;;
49458;SDS011;35354;51.296;16.924;2023-04-05T03:30:32;33.80;;;17.85;;
49458;SDS011;35354;51.296;16.924;2023-04-05T03:32:58;32.47;;;19.00;;
49458;SDS011;35354;51.296;16.924;2023-04-05T03:35:25;31.60;;;17.98;;
49458;SDS011;35354;51.296;16.924;2023-04-05T03:37:52;28.60;;;17.23;;
49458;SDS011;35354;51.296;16.924;2023-04-05T03:40:18;32.92;;;16.65;;
49458;SDS011;35354;51.296;16.924;2023-04-05T03:42:43;32.92;;;17.50;;
49458;SDS011;35354;51.296;16.924;2023-04-05T03:45:09;35.25;;;18.98;;
49458;SDS011;35354;51.296;16.924;2023-04-05T03:47:34;32.10;;;17.55;;
49458;SDS011;35354;51.296;16.924;2023-04-05T03:50:01;52.70;;;27.23;;
49458;SDS011;35354;51.296;16.924;2023-04-05T03:52:27;60.55;;;31.83;;
49458;SDS011;35354;51.296;16.924;2023-04-05T03:54:53;53.83;;;30.50;;
49458;SDS011;35354;51.296;16.924;2023-04-05T03:57:18;53.67;;;29.25;;
49458;SDS011;35354;51.296;16.924;2023-04-05T03:59:43;51.13;;;26.23;;
49458;SDS011;35354;51.296;16.924;2023-04-05T04:02:08;48.58;;;26.35;;
49458;SDS011;35354;51.296;16.924;2023-04-05T04:04:34;44.88;;;24.80;;
49458;SDS011;35354;51.296;16.924;2023-04-05T04:06:59;44.10;;;24.98;;
49458;SDS011;35354;51.296;16.924;2023-04-05T04:09:24;47.53;;;25.38;;
49458;SDS011;35354;51.296;16.924;2023-04-05T04:11:52;43.25;;;24.15;;
49458;SDS011;35354;51.296;16.924;2023-04-05T04:14:17;54.63;;;26.95;;
49458;SDS011;35354;51.296;16.924;2023-04-05T04:16:42;53.20;;;26.02;;
49458;SDS011;35354;51.296;16.924;2023-04-05T04:19:07;49.22;;;25.55;;
49458;SDS011;35354;51.296;16.924;2023-04-05T04:21:33;53.13;;;28.08;;
49458;SDS011;35354;51.296;16.924;2023-04-05T04:23:59;52.90;;;28.40;;
49458;SDS011;35354;51.296;16.924;2023-04-05T04:26:25;60.90;;;31.52;;
49458;SDS011;35354;51.296;16.924;2023-04-05T04:28:54;59.70;;;30.85;;
49458;SDS011;35354;51.296;16.924;2023-04-05T04:31:19;67.50;;;33.72;;
49458;SDS011;35354;51.296;16.924;2023-04-05T04:33:48;60.13;;;30.80;;
49458;SDS011;35354;51.296;16.924;2023-04-05T04:36:14;64.97;;;32.10;;
49458;SDS011;35354;51.296;16.924;2023-04-05T04:38:42;60.78;;;32.47;;
49458;SDS011;35354;51.296;16.924;2023-04-05T04:41:11;57.35;;;31.73;;
49458;SDS011;35354;51.296;16.924;2023-04-05T04:43:37;65.10;;;30.65;;
49458;SDS011;35354;51.296;16.924;2023-04-05T04:46:09;50.63;;;27.98;;
49458;SDS011;35354;51.296;16.924;2023-04-05T04:48:39;46.55;;;23.83;;
49458;SDS011;35354;51.296;16.924;2023-04-05T04:51:06;48.28;;;26.48;;
49458;SDS011;35354;51.296;16.924;2023-04-05T04:53:31;45.03;;;26.85;;
49458;SDS011;35354;51.296;16.924;2023-04-05T04:55:56;53.17;;;31.50;;
49458;SDS011;35354;51.296;16.924;2023-04-05T04:58:21;78.32;;;39.17;;
49458;SDS011;35354;51.296;16.924;2023-04-05T05:00:47;105.80;;;47.03;;
49458;SDS011;35354;51.296;16.924;2023-04-05T05:03:12;93.60;;;43.20;;
49458;SDS011;35354;51.296;16.924;2023-04-05T05:05:41;100.03;;;44.80;;
49458;SDS011;35354;51.296;16.924;2023-04-05T05:08:07;99.70;;;43.70;;
49458;SDS011;35354;51.296;16.924;2023-04-05T05:10:33;84.43;;;40.83;;
49458;SDS011;35354;51.296;16.924;2023-04-05T05:12:58;82.05;;;38.63;;
49458;SDS011;35354;51.296;16.924;2023-04-05T05:15:23;69.28;;;35.88;;
49458;SDS011;35354;51.296;16.924;2023-04-05T05:17:49;58.83;;;30.60;;
49458;SDS011;35354;51.296;16.924;2023-04-05T05:20:17;52.80;;;28.15;;
49458;SDS011;35354;51.296;16.924;2023-04-05T05:22:42;54.03;;;28.38;;
49458;SDS011;35354;51.296;16.924;2023-04-05T05:25:08;59.60;;;30.00;;
49458;SDS011;35354;51.296;16.924;2023-04-05T05:27:34;87.25;;;42.03;;
49458;SDS011;35354;51.296;16.924;2023-04-05T05:29:59;80.50;;;42.67;;
49458;SDS011;35354;51.296;16.924;2023-04-05T05:32:25;68.75;;;37.67;;
49458;SDS011;35354;51.296;16.924;2023-04-05T05:34:50;53.15;;;30.55;;
49458;SDS011;35354;51.296;16.924;2023-04-05T05:37:16;49.70;;;28.77;;
49458;SDS011;35354;51.296;16.924;2023-04-05T05:39:41;46.30;;;25.58;;
49458;SDS011;35354;51.296;16.924;2023-04-05T05:42:08;49.15;;;23.60;;
49458;SDS011;35354;51.296;16.924;2023-04-05T05:44:34;37.33;;;19.23;;
49458;SDS011;35354;51.296;16.924;2023-04-05T05:47:00;29.88;;;17.40;;
49458;SDS011;35354;51.296;16.924;2023-04-05T05:49:27;29.27;;;16.88;;
49458;SDS011;35354;51.296;16.924;2023-04-05T05:51:52;41.65;;;17.95;;
49458;SDS011;35354;51.296;16.924;2023-04-05T05:54:17;30.08;;;16.50;;
49458;SDS011;35354;51.296;16.924;2023-04-05T05:56:43;35.25;;;16.65;;
49458;SDS011;35354;51.296;16.924;2023-04-05T05:59:08;32.50;;;17.17;;
49458;SDS011;35354;51.296;16.924;2023-04-05T06:01:34;35.90;;;19.50;;
49458;SDS011;35354;51.296;16.924;2023-04-05T06:04:06;32.80;;;18.52;;
49458;SDS011;35354;51.296;16.924;2023-04-05T06:06:31;41.10;;;20.90;;
49458;SDS011;35354;51.296;16.924;2023-04-05T06:08:57;61.30;;;27.70;;
49458;SDS011;35354;51.296;16.924;2023-04-05T06:11:23;70.63;;;29.73;;
49458;SDS011;35354;51.296;16.924;2023-04-05T06:13:49;56.25;;;26.92;;
49458;SDS011;35354;51.296;16.924;2023-04-05T06:16:19;42.70;;;22.15;;
49458;SDS011;35354;51.296;16.924;2023-04-05T06:18:45;44.00;;;22.35;;
49458;SDS011;35354;51.296;16.924;2023-04-05T06:21:10;47.85;;;23.73;;
49458;SDS011;35354;51.296;16.924;2023-04-05T06:23:35;38.38;;;22.35;;
49458;SDS011;35354;51.296;16.924;2023-04-05T06:26:01;41.63;;;22.83;;
49458;SDS011;35354;51.296;16.924;2023-04-05T06:28:26;38.50;;;21.83;;
49458;SDS011;35354;51.296;16.924;2023-04-05T06:30:52;39.40;;;21.42;;
49458;SDS011;35354;51.296;16.924;2023-04-05T06:33:21;37.80;;;19.73;;
49458;SDS011;35354;51.296;16.924;2023-04-05T06:35:47;34.25;;;17.90;;
49458;SDS011;35354;51.296;16.924;2023-04-05T06:38:12;52.53;;;28.70;;
49458;SDS011;35354;51.296;16.924;2023-04-05T06:40:37;39.40;;;23.77;;
49458;SDS011;35354;51.296;16.924;2023-04-05T06:43:03;40.95;;;23.88;;
49458;SDS011;35354;51.296;16.924;2023-04-05T06:45:28;35.83;;;20.83;;
49458;SDS011;35354;51.296;16.924;2023-04-05T06:47:53;47.42;;;24.33;;
49458;SDS011;35354;51.296;16.924;2023-04-05T06:50:19;42.35;;;23.98;;
49458;SDS011;35354;51.296;16.924;2023-04-05T06:52:44;42.97;;;23.42;;
49458;SDS011;35354;51.296;16.924;2023-04-05T06:55:10;40.30;;;21.98;;
49458;SDS011;35354;51.296;16.924;2023-04-05T06:57:35;46.15;;;22.63;;
49458;SDS011;35354;51.296;16.924;2023-04-05T07:00:00;44.78;;;25.13;;
49458;SDS011;35354;51.296;16.924;2023-04-05T07:02:26;61.95;;;28.95;;
49458;SDS011;35354;51.296;16.924;2023-04-05T07:04:51;69.20;;;30.08;;
49458;SDS011;35354;51.296;16.924;2023-04-05T07:07:17;64.55;;;29.35;;
49458;SDS011;35354;51.296;16.924;2023-04-05T07:09:43;70.43;;;29.85;;
49458;SDS011;35354;51.296;16.924;2023-04-05T07:12:08;63.83;;;28.83;;
49458;SDS011;35354;51.296;16.924;2023-04-05T07:14:35;376.00;;;173.80;;
49458;SDS011;35354;51.296;16.924;2023-04-05T07:17:05;320.35;;;154.90;;
49458;SDS011;35354;51.296;16.924;2023-04-05T07:19:31;73.60;;;38.20;;
49458;SDS011;35354;51.296;16.924;2023-04-05T07:21:57;66.35;;;38.30;;
49458;SDS011;35354;51.296;16.924;2023-04-05T07:24:23;45.78;;;25.33;;
49458;SDS011;35354;51.296;16.924;2023-04-05T07:26:48;58.97;;;34.22;;
49458;SDS011;35354;51.296;16.924;2023-04-05T07:29:13;52.88;;;30.38;;
49458;SDS011;35354;51.296;16.924;2023-04-05T07:31:39;45.45;;;22.50;;
49458;SDS011;35354;51.296;16.924;2023-04-05T07:34:05;40.63;;;20.73;;
49458;SDS011;35354;51.296;16.924;2023-04-05T07:36:31;36.20;;;19.15;;
49458;SDS011;35354;51.296;16.924;2023-04-05T07:38:56;39.33;;;19.85;;
49458;SDS011;35354;51.296;16.924;2023-04-05T07:41:23;42.05;;;21.42;;
49458;SDS011;35354;51.296;16.924;2023-04-05T07:43:50;33.55;;;18.77;;
49458;SDS011;35354;51.296;16.924;2023-04-05T07:46:15;36.92;;;17.75;;
49458;SDS011;35354;51.296;16.924;2023-04-05T07:48:41;30.70;;;16.25;;
49458;SDS011;35354;51.296;16.924;2023-04-05T07:51:06;39.33;;;18.00;;
49458;SDS011;35354;51.296;16.924;2023-04-05T07:53:34;34.45;;;18.58;;
49458;SDS011;35354;51.296;16.924;2023-04-05T07:56:03;36.17;;;18.27;;
49458;SDS011;35354;51.296;16.924;2023-04-05T07:58:33;35.80;;;18.88;;
49458;SDS011;35354;51.296;16.924;2023-04-05T08:01:02;30.10;;;17.73;;
49458;SDS011;35354;51.296;16.924;2023-04-05T08:03:28;38.03;;;24.42;;
49458;SDS011;35354;51.296;16.924;2023-04-05T08:05:54;30.55;;;22.65;;
49458;SDS011;35354;51.296;16.924;2023-04-05T08:08:20;55.05;;;43.35;;
49458;SDS011;35354;51.296;16.924;2023-04-05T08:10:47;43.72;;;29.08;;
49458;SDS011;35354;51.296;16.924;2023-04-05T08:13:12;31.05;;;18.80;;
49458;SDS011;35354;51.296;16.924;2023-04-05T08:15:38;33.30;;;21.60;;
49458;SDS011;35354;51.296;16.924;2023-04-05T08:18:04;32.17;;;19.83;;
49458;SDS011;35354;51.296;16.924;2023-04-05T08:20:30;25.25;;;15.23;;
49458;SDS011;35354;51.296;16.924;2023-04-05T08:22:55;27.05;;;15.57;;
49458;SDS011;35354;51.296;16.924;2023-04-05T08:25:20;24.85;;;14.57;;
49458;SDS011;35354;51.296;16.924;2023-04-05T08:27:46;28.23;;;14.00;;
49458;SDS011;35354;51.296;16.924;2023-04-05T08:30:11;22.48;;;13.25;;
49458;SDS011;35354;51.296;16.924;2023-04-05T08:32:37;25.30;;;12.07;;
49458;SDS011;35354;51.296;16.924;2023-04-05T08:35:02;22.33;;;12.95;;
49458;SDS011;35354;51.296;16.924;2023-04-05T08:37:28;24.02;;;12.73;;
49458;SDS011;35354;51.296;16.924;2023-04-05T08:39:53;56.95;;;37.03;;
49458;SDS011;35354;51.296;16.924;2023-04-05T08:42:23;89.20;;;70.50;;
49458;SDS011;35354;51.296;16.924;2023-04-05T08:44:53;44.10;;;29.38;;
49458;SDS011;35354;51.296;16.924;2023-04-05T08:47:22;35.35;;;18.40;;
49458;SDS011;35354;51.296;16.924;2023-04-05T08:49:47;26.05;;;14.65;;
49458;SDS011;35354;51.296;16.924;2023-04-05T08:52:13;24.10;;;12.77;;
49458;SDS011;35354;51.296;16.924;2023-04-05T08:54:38;20.98;;;10.85;;
49458;SDS011;35354;51.296;16.924;2023-04-05T08:57:04;16.38;;;9.40;;
49458;SDS011;35354;51.296;16.924;2023-04-05T08:59:37;16.73;;;10.02;;
49458;SDS011;35354;51.296;16.924;2023-04-05T09:02:14;26.35;;;11.95;;
49458;SDS011;35354;51.296;16.924;2023-04-05T09:04:43;22.80;;;12.98;;
49458;SDS011;35354;51.296;16.924;2023-04-05T09:07:09;21.40;;;11.93;;
49458;SDS011;35354;51.296;16.924;2023-04-05T09:09:37;23.02;;;12.60;;
49458;SDS011;35354;51.296;16.924;2023-04-05T09:12:06;20.42;;;11.40;;
49458;SDS011;35354;51.296;16.924;2023-04-05T09:14:35;16.45;;;9.25;;
49458;SDS011;35354;51.296;16.924;2023-04-05T09:17:02;17.10;;;9.75;;
49458;SDS011;35354;51.296;16.924;2023-04-05T09:19:28;19.50;;;11.02;;
49458;SDS011;35354;51.296;16.924;2023-04-05T09:24:30;13.80;;;8.25;;
49458;SDS011;35354;51.296;16.924;2023-04-05T09:27:03;20.15;;;7.90;;
49458;SDS011;35354;51.296;16.924;2023-04-05T09:29:42;12.45;;;7.63;;
49458;SDS011;35354;51.296;16.924;2023-04-05T09:32:09;13.65;;;8.95;;
49458;SDS011;35354;51.296;16.924;2023-04-05T09:34:36;11.27;;;6.65;;
49458;SDS011;35354;51.296;16.924;2023-04-05T09:37:03;20.70;;;10.70;;
49458;SDS011;35354;51.296;16.924;2023-04-05T09:39:40;11.27;;;6.38;;
49458;SDS011;35354;51.296;16.924;2023-04-05T09:47:21;15.23;;;6.82;;
49458;SDS011;35354;51.296;16.924;2023-04-05T09:49:49;11.38;;;6.35;;
49458;SDS011;35354;51.296;16.924;2023-04-05T09:52:18;11.55;;;6.55;;
49458;SDS011;35354;51.296;16.924;2023-04-05T09:54:45;13.52;;;8.48;;
49458;SDS011;35354;51.296;16.924;2023-04-05T09:57:14;10.18;;;7.22;;
49458;SDS011;35354;51.296;16.924;2023-04-05T09:59:40;17.55;;;8.98;;
49458;SDS011;35354;51.296;16.924;2023-04-05T10:02:05;12.07;;;7.18;;
49458;SDS011;35354;51.296;16.924;2023-04-05T10:04:37;10.90;;;5.97;;
49458;SDS011;35354;51.296;16.924;2023-04-05T10:07:09;10.40;;;6.40;;
49458;SDS011;35354;51.296;16.924;2023-04-05T10:09:39;12.40;;;7.63;;
49458;SDS011;35354;51.296;16.924;2023-04-05T10:12:06;12.45;;;7.50;;
49458;SDS011;35354;51.296;16.924;2023-04-05T10:14:33;62.95;;;42.00;;
49458;SDS011;35354;51.296;16.924;2023-04-05T10:17:12;16.67;;;9.73;;
49458;SDS011;35354;51.296;16.924;2023-04-05T10:19:59;14.50;;;9.00;;
49458;SDS011;35354;51.296;16.924;2023-04-05T10:22:32;13.10;;;7.75;;
49458;SDS011;35354;51.296;16.924;2023-04-05T10:25:18;15.77;;;8.68;;
49458;SDS011;35354;51.296;16.924;2023-04-05T10:27:47;11.70;;;7.63;;
49458;SDS011;35354;51.296;16.924;2023-04-05T10:30:18;11.55;;;7.55;;
49458;SDS011;35354;51.296;16.924;2023-04-05T10:35:15;11.05;;;6.70;;
49458;SDS011;35354;51.296;16.924;2023-04-05T10:40:42;12.50;;;8.30;;
49458;SDS011;35354;51.296;16.924;2023-04-05T10:43:14;13.82;;;8.43;;
49458;SDS011;35354;51.296;16.924;2023-04-05T10:45:41;12.82;;;8.05;;
49458;SDS011;35354;51.296;16.924;2023-04-05T10:48:33;14.05;;;8.77;;
49458;SDS011;35354;51.296;16.924;2023-04-05T10:51:08;15.98;;;9.80;;
49458;SDS011;35354;51.296;16.924;2023-04-05T10:53:35;14.43;;;8.23;;
49458;SDS011;35354;51.296;16.924;2023-04-05T10:56:01;55.05;;;29.70;;
49458;SDS011;35354;51.296;16.924;2023-04-05T10:58:28;36.05;;;21.58;;
49458;SDS011;35354;51.296;16.924;2023-04-05T11:00:54;11.48;;;6.78;;
49458;SDS011;35354;51.296;16.924;2023-04-05T11:08:52;7.05;;;4.78;;
49458;SDS011;35354;51.296;16.924;2023-04-05T11:11:21;8.05;;;4.70;;
49458;SDS011;35354;51.296;16.924;2023-04-05T11:13:54;7.57;;;4.63;;
49458;SDS011;35354;51.296;16.924;2023-04-05T11:16:20;10.07;;;5.00;;
49458;SDS011;35354;51.296;16.924;2023-04-05T11:18:49;6.30;;;4.57;;
49458;SDS011;35354;51.296;16.924;2023-04-05T11:21:23;5.75;;;4.60;;
49458;SDS011;35354;51.296;16.924;2023-04-05T11:29:05;11.88;;;6.95;;
49458;SDS011;35354;51.296;16.924;2023-04-05T11:31:32;26.25;;;20.17;;
49458;SDS011;35354;51.296;16.924;2023-04-05T11:34:05;12.73;;;9.65;;
49458;SDS011;35354;51.296;16.924;2023-04-05T11:36:37;14.45;;;11.73;;
49458;SDS011;35354;51.296;16.924;2023-04-05T11:42:04;13.77;;;8.68;;
49458;SDS011;35354;51.296;16.924;2023-04-05T11:44:42;59.75;;;42.35;;
49458;SDS011;35354;51.296;16.924;2023-04-05T11:47:10;81.25;;;54.17;;
49458;SDS011;35354;51.296;16.924;2023-04-05T11:49:35;48.65;;;33.70;;
49458;SDS011;35354;51.296;16.924;2023-04-05T11:52:14;42.65;;;37.38;;
49458;SDS011;35354;51.296;16.924;2023-04-05T11:54:41;34.33;;;30.90;;
49458;SDS011;35354;51.296;16.924;2023-04-05T11:57:11;10.45;;;7.70;;
49458;SDS011;35354;51.296;16.924;2023-04-05T11:59:38;18.42;;;7.97;;
49458;SDS011;35354;51.296;16.924;2023-04-05T12:02:04;17.75;;;11.30;;
49458;SDS011;35354;51.296;16.924;2023-04-05T12:04:32;20.25;;;10.43;;
49458;SDS011;35354;51.296;16.924;2023-04-05T12:12:28;14.40;;;8.40;;
49458;SDS011;35354;51.296;16.924;2023-04-05T12:14:58;14.77;;;6.47;;
49458;SDS011;35354;51.296;16.924;2023-04-05T12:17:37;13.68;;;7.65;;
49458;SDS011;35354;51.296;16.924;2023-04-05T12:20:03;14.65;;;8.18;;
49458;SDS011;35354;51.296;16.924;2023-04-05T12:22:30;14.70;;;8.60;;
49458;SDS011;35354;51.296;16.924;2023-04-05T12:24:55;18.75;;;7.45;;
49458;SDS011;35354;51.296;16.924;2023-04-05T12:27:21;8.63;;;5.22;;
49458;SDS011;35354;51.296;16.924;2023-04-05T12:35:30;12.23;;;7.22;;
49458;SDS011;35354;51.296;16.924;2023-04-05T12:38:00;13.57;;;7.72;;
49458;SDS011;35354;51.296;16.924;2023-04-05T12:40:27;9.98;;;5.53;;
49458;SDS011;35354;51.296;16.924;2023-04-05T12:42:59;8.48;;;5.40;;
49458;SDS011;35354;51.296;16.924;2023-04-05T12:45:32;7.78;;;5.35;;
49458;SDS011;35354;51.296;16.924;2023-04-05T12:48:22;12.82;;;6.57;;
49458;SDS011;35354;51.296;16.924;2023-04-05T12:50:49;11.57;;;5.90;;
49458;SDS011;35354;51.296;16.924;2023-04-05T12:55:52;27.98;;;16.90;;
49458;SDS011;35354;51.296;16.924;2023-04-05T12:58:20;21.98;;;13.38;;
49458;SDS011;35354;51.296;16.924;2023-04-05T13:00:47;20.30;;;12.80;;
49458;SDS011;35354;51.296;16.924;2023-04-05T13:03:24;23.92;;;17.92;;
49458;SDS011;35354;51.296;16.924;2023-04-05T13:05:50;23.42;;;15.00;;
49458;SDS011;35354;51.296;16.924;2023-04-05T13:08:17;20.17;;;13.63;;
49458;SDS011;35354;51.296;16.924;2023-04-05T13:10:43;19.48;;;13.85;;
49458;SDS011;35354;51.296;16.924;2023-04-05T13:13:10;17.83;;;13.02;;
49458;SDS011;35354;51.296;16.924;2023-04-05T13:15:37;19.40;;;10.88;;
49458;SDS011;35354;51.296;16.924;2023-04-05T13:18:03;9.60;;;7.10;;
49458;SDS011;35354;51.296;16.924;2023-04-05T13:20:30;10.85;;;6.90;;
49458;SDS011;35354;51.296;16.924;2023-04-05T13:22:56;8.05;;;4.70;;
49458;SDS011;35354;51.296;16.924;2023-04-05T13:25:21;9.73;;;5.85;;
49458;SDS011;35354;51.296;16.924;2023-04-05T13:27:48;9.50;;;4.88;;
49458;SDS011;35354;51.296;16.924;2023-04-05T13:30:14;8.13;;;6.20;;
49458;SDS011;35354;51.296;16.924;2023-04-05T13:32:41;50.53;;;29.23;;
49458;SDS011;35354;51.296;16.924;2023-04-05T13:35:07;22.58;;;12.07;;
49458;SDS011;35354;51.296;16.924;2023-04-05T13:37:33;12.77;;;8.20;;
49458;SDS011;35354;51.296;16.924;2023-04-05T13:39:59;15.15;;;6.82;;
49458;SDS011;35354;51.296;16.924;2023-04-05T13:42:24;8.63;;;6.03;;
49458;SDS011;35354;51.296;16.924;2023-04-05T13:44:50;11.88;;;6.63;;
49458;SDS011;35354;51.296;16.924;2023-04-05T13:47:15;8.30;;;5.68;;
49458;SDS011;35354;51.296;16.924;2023-04-05T13:49:41;11.05;;;6.80;;
49458;SDS011;35354;51.296;16.924;2023-04-05T13:52:07;40.33;;;16.00;;
49458;SDS011;35354;51.296;16.924;2023-04-05T13:54:32;22.73;;;10.35;;
49458;SDS011;35354;51.296;16.924;2023-04-05T13:56:58;12.27;;;8.60;;
49458;SDS011;35354;51.296;16.924;2023-04-05T13:59:23;21.40;;;12.63;;
49458;SDS011;35354;51.296;16.924;2023-04-05T14:01:49;6.65;;;4.82;;
49458;SDS011;35354;51.296;16.924;2023-04-05T14:04:15;53.83;;;24.45;;
49458;SDS011;35354;51.296;16.924;2023-04-05T14:06:40;15.75;;;9.13;;
49458;SDS011;35354;51.296;16.924;2023-04-05T14:09:06;18.80;;;11.85;;
49458;SDS011;35354;51.296;16.924;2023-04-05T14:11:32;11.43;;;7.55;;
49458;SDS011;35354;51.296;16.924;2023-04-05T14:13:58;14.18;;;9.35;;
49458;SDS011;35354;51.296;16.924;2023-04-05T14:16:24;16.83;;;10.93;;
49458;SDS011;35354;51.296;16.924;2023-04-05T14:18:49;11.45;;;6.68;;
49458;SDS011;35354;51.296;16.924;2023-04-05T14:21:15;13.48;;;9.02;;
49458;SDS011;35354;51.296;16.924;2023-04-05T14:23:40;26.25;;;23.42;;
49458;SDS011;35354;51.296;16.924;2023-04-05T14:26:06;12.07;;;7.93;;
49458;SDS011;35354;51.296;16.924;2023-04-05T14:28:31;79.45;;;55.35;;
49458;SDS011;35354;51.296;16.924;2023-04-05T14:30:56;69.45;;;52.63;;
49458;SDS011;35354;51.296;16.924;2023-04-05T14:33:23;37.05;;;32.45;;
49458;SDS011;35354;51.296;16.924;2023-04-05T14:35:48;30.35;;;23.77;;
49458;SDS011;35354;51.296;16.924;2023-04-05T14:38:14;52.88;;;38.95;;
49458;SDS011;35354;51.296;16.924;2023-04-05T14:40:40;44.95;;;33.75;;
49458;SDS011;35354;51.296;16.924;2023-04-05T14:43:06;39.28;;;31.13;;
49458;SDS011;35354;51.296;16.924;2023-04-05T14:45:31;23.80;;;17.80;;
49458;SDS011;35354;51.296;16.924;2023-04-05T14:47:58;21.20;;;16.20;;
49458;SDS011;35354;51.296;16.924;2023-04-05T14:50:23;17.17;;;10.13;;
49458;SDS011;35354;51.296;16.924;2023-04-05T14:52:49;22.05;;;13.95;;
49458;SDS011;35354;51.296;16.924;2023-04-05T14:55:14;6.13;;;4.47;;
49458;SDS011;35354;51.296;16.924;2023-04-05T14:57:40;64.25;;;43.17;;
49458;SDS011;35354;51.296;16.924;2023-04-05T15:00:07;42.60;;;30.27;;
49458;SDS011;35354;51.296;16.924;2023-04-05T15:02:33;16.77;;;13.50;;
49458;SDS011;35354;51.296;16.924;2023-04-05T15:05:00;20.13;;;15.82;;